Terminal Aerodrome Forecast
Issued by NWS

Home | Current Version | Previous Version | Graphics & Text | Print | Product List | Glossary On
Versions: 1 2 3 4 5 6 7 8 9 10 11 12 13 14 15 16 17 18 19 20 21 22 23 24 25 26 27 28 29
452
FTUS43 KLOT 141930 AAC
TAFORD
TAF AMD
KORD 141930Z 1420/1524 17008KT 5SM -RA BR SCT007 OVC025
      TEMPO 1420/1421 BKN007
     FM142130 15007KT 4SM -SHRA VCTS SCT007 BKN015 OVC025CB
      TEMPO 1422/1424 2SM TSRA BKN007 OVC015CB
     FM150200 20015G23KT 4SM -SHRA VCTS SCT007 OVC020CB
      TEMPO 1505/1507 2SM TSRA OVC015CB
     FM151000 23017G25KT P6SM VCSH OVC015
     FM151200 26020G35KT P6SM BKN012 OVC018
     FM151700 30016G25KT P6SM BKN025=

USA.gov is the U.S. government's official web portal to all federal, state and local government web resources and services.